Time;durP1;ratioP1;P1;durP2;ratioP2;P2;SDS_P1;SDS_P2;PMS_P1;PMS_P2;Temp;Humidity;BMP_temperature;BMP_pressure;BME280_temperature;BME280_humidity;BME280_pressure;Samples;Min_cycle;Max_cycle;Signal;HPM_P1;HPM_P2
2022/06/08 06:18:32;;;;;;;2.30;2.20;;;17.20;99.90;;;;;;5090902;27;20600;-76
2022/06/08 06:20:58;;;;;;;2.25;1.90;;;16.30;99.90;;;;;;5090868;28;20229;-76
2022/06/08 06:23:25;;;;;;;3.28;2.05;;;16.40;99.90;;;;;;5090870;28;20172;-77
2022/06/08 06:25:51;;;;;;;2.97;2.00;;;16.40;99.90;;;;;;5090728;28;20183;-76
2022/06/08 06:28:17;;;;;;;3.13;1.80;;;16.50;99.90;;;;;;5090821;28;20195;-77
2022/06/08 06:30:43;;;;;;;2.47;2.28;;;16.60;99.90;;;;;;5089410;28;20196;-77
2022/06/08 06:33:12;;;;;;;2.30;2.00;;;16.60;99.90;;;;;;5090717;28;20195;-76
2022/06/08 06:35:38;;;;;;;2.20;2.10;;;16.70;99.90;;;;;;5090564;28;20225;-76
2022/06/08 06:38:04;;;;;;;2.55;2.38;;;16.80;99.90;;;;;;5090549;28;20199;-77
2022/06/08 06:40:30;;;;;;;1.70;1.60;;;16.80;99.90;;;;;;5090524;28;20203;-77
2022/06/08 06:42:56;;;;;;;2.22;2.00;;;16.80;99.90;;;;;;5090487;28;20160;-77
2022/06/08 06:45:22;;;;;;;2.28;1.60;;;16.90;99.90;;;;;;5090407;28;20531;-77
2022/06/08 06:47:47;;;;;;;2.33;2.13;;;16.90;99.90;;;;;;5090446;28;20326;-76
2022/06/08 06:50:15;;;;;;;1.80;1.40;;;17.00;99.90;;;;;;5090313;28;20164;-77
2022/06/08 06:52:41;;;;;;;1.90;1.77;;;17.00;99.90;;;;;;5090389;28;20167;-76
2022/06/08 06:55:07;;;;;;;2.05;1.65;;;17.20;99.90;;;;;;5089988;28;20172;-74
2022/06/08 06:57:33;;;;;;;3.70;1.70;;;17.30;99.90;;;;;;5088775;28;20683;-74
2022/06/08 06:59:59;;;;;;;1.90;1.80;;;17.40;99.90;;;;;;5090086;28;20199;-74
2022/06/08 07:02:24;;;;;;;3.08;1.58;;;17.50;99.90;;;;;;5090038;28;20228;-75
2022/06/08 07:04:50;;;;;;;1.90;1.80;;;17.60;99.90;;;;;;5089955;28;20160;-75
2022/06/08 07:07:16;;;;;;;1.20;1.20;;;17.70;99.90;;;;;;5089104;28;20594;-76
2022/06/08 07:09:42;;;;;;;1.30;1.30;;;17.80;99.90;;;;;;5089907;28;20251;-78
2022/06/08 07:12:12;;;;;;;3.35;1.45;;;17.90;99.90;;;;;;5088851;28;20202;-80
2022/06/08 07:14:38;;;;;;;1.67;1.60;;;17.90;99.90;;;;;;5089901;28;20175;-81
2022/06/08 07:17:04;;;;;;;1.60;1.50;;;18.10;99.90;;;;;;5089751;28;20215;-81
2022/06/08 07:19:29;;;;;;;1.70;1.60;;;18.10;99.90;;;;;;5089889;28;20174;-75
2022/06/08 07:21:55;;;;;;;1.30;1.30;;;18.20;99.90;;;;;;5089758;28;20172;-81
2022/06/08 07:24:30;;;;;;;1.52;1.42;;;18.20;99.90;;;;;;5089828;28;20152;-81
2022/06/08 07:26:56;;;;;;;1.52;1.50;;;18.30;99.90;;;;;;5089749;28;20163;-82
2022/06/08 07:29:22;;;;;;;3.80;2.38;;;18.40;99.90;;;;;;5077907;28;20196;-81
2022/06/08 07:31:47;;;;;;;1.92;1.25;;;18.50;99.90;;;;;;5076110;28;20255;-82
2022/06/08 07:34:14;;;;;;;1.40;1.40;;;18.40;99.90;;;;;;5076049;28;20172;-81
2022/06/08 07:36:41;;;;;;;2.47;1.40;;;18.50;99.90;;;;;;5075880;28;20195;-81
2022/06/08 07:39:06;;;;;;;1.40;1.20;;;18.50;99.90;;;;;;5075946;28;20156;-77
2022/06/08 07:41:32;;;;;;;1.73;1.63;;;18.50;99.90;;;;;;5076134;28;20571;-75
2022/06/08 07:43:58;;;;;;;1.70;1.48;;;18.60;99.90;;;;;;5075835;28;20171;-75
2022/06/08 07:46:24;;;;;;;1.13;1.13;;;18.60;99.90;;;;;;5075815;28;20249;-77
2022/06/08 07:51:34;;;;;;;2.67;1.33;;;19.30;99.90;;;;;;5075787;28;20179;-75
2022/06/08 07:54:00;;;;;;;2.63;1.52;;;18.60;99.90;;;;;;5075656;28;20587;-75
2022/06/08 07:56:26;;;;;;;1.33;1.33;;;18.70;99.90;;;;;;5074318;28;20229;-79
2022/06/08 07:58:52;;;;;;;1.25;1.25;;;18.70;99.90;;;;;;5074306;28;20168;-79
2022/06/08 08:01:17;;;;;;;1.52;1.42;;;18.80;99.90;;;;;;5075623;28;20178;-78
2022/06/08 08:03:43;;;;;;;1.33;1.33;;;18.90;99.90;;;;;;5075815;28;20196;-79
2022/06/08 08:06:09;;;;;;;1.98;1.40;;;18.70;99.90;;;;;;5074412;28;20218;-78
2022/06/08 08:08:36;;;;;;;1.85;1.35;;;19.50;99.90;;;;;;5075433;28;20167;-77
2022/06/08 08:11:03;;;;;;;2.90;1.48;;;18.90;99.90;;;;;;5075482;28;20163;-76
2022/06/08 08:13:29;;;;;;;1.63;1.35;;;19.00;99.90;;;;;;5075323;28;20156;-78
2022/06/08 08:15:55;;;;;;;1.30;1.30;;;19.00;99.90;;;;;;5075320;28;20672;-79
2022/06/08 08:18:20;;;;;;;1.75;1.65;;;19.00;99.90;;;;;;5074887;28;20227;-76
2022/06/08 08:20:46;;;;;;;1.48;1.38;;;19.00;99.90;;;;;;5075138;28;20175;-76
2022/06/08 08:23:12;;;;;;;2.63;1.15;;;19.20;99.90;;;;;;5073798;28;20686;-80
2022/06/08 08:25:38;;;;;;;1.80;1.80;;;19.20;99.90;;;;;;5075062;28;20175;-77
2022/06/08 08:28:04;;;;;;;2.08;1.52;;;19.30;99.90;;;;;;5075009;28;20163;-77
2022/06/08 08:30:31;;;;;;;2.50;1.40;;;19.20;99.90;;;;;;5074939;28;20616;-76
2022/06/08 08:32:57;;;;;;;1.80;1.55;;;19.20;99.90;;;;;;5074826;28;20172;-76
2022/06/08 08:35:24;;;;;;;1.83;1.40;;;19.20;99.90;;;;;;5074878;28;20614;-77
2022/06/08 08:37:51;;;;;;;2.78;1.50;;;19.20;99.90;;;;;;5074687;28;20199;-76
2022/06/08 08:40:19;;;;;;;1.67;1.55;;;19.10;99.90;;;;;;5073670;28;20629;-76
2022/06/08 08:42:45;;;;;;;1.65;1.45;;;19.00;99.90;;;;;;5074686;28;20176;-77
2022/06/08 08:45:13;;;;;;;1.55;1.42;;;19.00;99.90;;;;;;5074660;28;20163;-76
2022/06/08 08:48:06;;;;;;;1.80;1.70;;;18.90;99.90;;;;;;5074443;28;20709;-76
2022/06/08 08:50:41;;;;;;;3.75;1.55;;;18.90;99.90;;;;;;5074684;28;20245;-76
2022/06/08 08:53:17;;;;;;;2.17;1.60;;;18.90;99.90;;;;;;5074527;28;20666;-76
2022/06/08 08:55:56;;;;;;;2.88;1.52;;;18.90;99.90;;;;;;5074416;28;20163;-75
2022/06/08 08:58:33;;;;;;;1.77;1.67;;;18.90;99.90;;;;;;5074334;28;20206;-73
2022/06/08 09:01:22;;;;;;;7.22;2.35;;;18.90;99.90;;;;;;5074346;28;20181;-73
2022/06/08 09:04:31;;;;;;;2.60;2.40;;;18.80;99.90;;;;;;5073613;28;20180;-73
2022/06/08 09:06:58;;;;;;;2.50;1.58;;;18.70;99.90;;;;;;5074035;28;20282;-74
2022/06/08 09:09:30;;;;;;;2.80;1.40;;;18.70;99.90;;;;;;5073970;28;20187;-72
2022/06/08 09:11:55;;;;;;;4.70;1.73;;;18.80;99.90;;;;;;5072942;28;20175;-73
2022/06/08 09:14:25;;;;;;;3.30;1.85;;;18.80;99.90;;;;;;5074062;28;20183;-73
2022/06/08 09:16:51;;;;;;;2.55;2.35;;;18.90;99.90;;;;;;5072404;28;20223;-74
2022/06/08 09:19:26;;;;;;;1.55;1.50;;;19.00;99.90;;;;;;5074034;28;20179;-78
2022/06/08 09:22:13;;;;;;;1.98;1.60;;;19.10;99.90;;;;;;5073909;28;20167;-77
2022/06/08 09:24:44;;;;;;;1.88;1.45;;;19.30;99.90;;;;;;5073923;28;20168;-76
2022/06/08 09:27:24;;;;;;;3.72;1.60;;;19.50;99.90;;;;;;5073827;28;20591;-75
2022/06/08 09:29:54;;;;;;;7.80;1.83;;;19.70;99.90;;;;;;5073795;28;20168;-76
2022/06/08 09:32:49;;;;;;;2.10;1.50;;;19.90;99.90;;;;;;5072474;28;20176;-75
2022/06/08 09:35:26;;;;;;;1.98;1.55;;;19.90;99.90;;;;;;5072724;28;20538;-76
2022/06/08 09:37:55;;;;;;;2.15;1.48;;;19.90;99.90;;;;;;5073534;28;20668;-75
2022/06/08 09:40:36;;;;;;;4.47;1.60;;;20.00;99.90;;;;;;5073650;28;20176;-75
2022/06/08 09:43:14;;;;;;;2.08;1.58;;;19.90;99.90;;;;;;5073677;28;20187;-75
2022/06/08 09:45:49;;;;;;;1.95;1.38;;;19.90;99.90;;;;;;5073581;28;20159;-75
2022/06/08 09:52:09;;;;;;;2.47;1.38;;;20.00;99.90;;;;;;5073620;28;20609;-75
2022/06/08 09:55:12;;;;;;;1.55;1.45;;;19.90;99.90;;;;;;5073519;28;20203;-74
2022/06/08 09:58:10;;;;;;;3.03;1.60;;;19.90;99.90;;;;;;5073417;28;20244;-75
2022/06/08 10:00:46;;;;;;;5.03;1.30;;;20.00;99.90;;;;;;5073429;28;20171;-75
2022/06/08 10:03:25;;;;;;;4.22;1.90;;;20.10;99.90;;;;;;5073435;28;20558;-76
2022/06/08 10:05:59;;;;;;;2.22;1.80;;;20.20;99.90;;;;;;5073337;28;20629;-75
2022/06/08 10:08:44;;;;;;;2.20;1.60;;;20.20;99.90;;;;;;5073290;28;20182;-76
2022/06/08 10:11:34;;;;;;;1.83;1.63;;;20.30;99.90;;;;;;5073334;28;20172;-76
2022/06/08 10:14:25;;;;;;;2.10;1.45;;;20.40;99.90;;;;;;5073304;28;20168;-76
2022/06/08 10:17:00;;;;;;;7.40;2.08;;;20.40;99.90;;;;;;5072832;28;20219;-76
2022/06/08 10:19:33;;;;;;;8.10;1.63;;;20.50;99.90;;;;;;5073408;28;20246;-75
2022/06/08 10:22:01;;;;;;;2.28;1.48;;;20.50;99.90;;;;;;5073252;28;20558;-75
2022/06/08 10:24:31;;;;;;;1.30;1.20;;;20.60;99.90;;;;;;5073126;28;20167;-74
2022/06/08 10:27:18;;;;;;;3.33;2.00;;;20.60;99.90;;;;;;5073135;28;20514;-74
2022/06/08 10:29:55;;;;;;;4.88;1.75;;;20.70;99.90;;;;;;5073124;28;20233;-74
2022/06/08 10:32:29;;;;;;;3.88;1.40;;;20.70;99.90;;;;;;5073096;28;20175;-74
2022/06/08 10:34:55;;;;;;;3.20;1.30;;;20.70;99.90;;;;;;5073206;28;20168;-74
2022/06/08 10:37:36;;;;;;;3.92;1.55;;;20.70;99.90;;;;;;5073030;28;20198;-74
2022/06/08 10:40:08;;;;;;;3.58;1.60;;;20.70;99.90;;;;;;5072986;28;20247;-74
2022/06/08 10:42:39;;;;;;;2.60;1.33;;;20.60;99.90;;;;;;5072974;28;20345;-75
2022/06/08 10:45:20;;;;;;;4.25;2.25;;;20.50;99.90;;;;;;5073034;28;20168;-75
2022/06/08 10:48:00;;;;;;;3.63;1.55;;;20.40;99.90;;;;;;5072914;28;20706;-75
2022/06/08 10:50:38;;;;;;;3.08;1.63;;;20.40;99.90;;;;;;5071694;28;20176;-75
2022/06/08 10:56:32;;;;;;;3.78;1.83;;;20.20;99.90;;;;;;5072995;28;20202;-73
2022/06/08 10:59:07;;;;;;;1.40;1.30;;;19.80;99.90;;;;;;5072890;28;20176;-74
2022/06/08 11:01:54;;;;;;;2.28;1.80;;;19.50;99.90;;;;;;5072903;28;20564;-74
2022/06/08 11:04:49;;;;;;;4.18;2.33;;;19.10;99.90;;;;;;5074876;28;20167;-73
2022/06/08 11:07:18;;;;;;;2.55;1.23;;;19.10;99.90;;;;;;5076260;28;20195;-74
2022/06/08 11:09:47;;;;;;;3.70;1.60;;;19.00;99.90;;;;;;5076458;28;20552;-76
2022/06/08 11:12:13;;;;;;;1.52;1.40;;;19.10;99.90;;;;;;5076333;28;20168;-75
2022/06/08 11:14:47;;;;;;;7.75;2.50;;;19.10;99.90;;;;;;5076362;28;20171;-75
2022/06/08 11:17:28;;;;;;;2.33;1.92;;;19.10;99.90;;;;;;5076080;28;20254;-75
2022/06/08 11:20:03;;;;;;;6.13;2.00;;;19.00;99.90;;;;;;5076295;28;20187;-75
2022/06/08 11:22:38;;;;;;;4.38;2.10;;;19.00;99.90;;;;;;5076211;28;20163;-75
2022/06/08 11:25:11;;;;;;;5.45;1.98;;;18.90;99.90;;;;;;5074969;28;20167;-75
2022/06/08 11:27:39;;;;;;;13.25;2.45;;;18.80;99.90;;;;;;5076127;28;20179;-75
2022/06/08 11:30:23;;;;;;;5.68;2.33;;;18.70;99.90;;;;;;5075876;28;20656;-72
2022/06/08 11:33:18;;;;;;;7.05;2.00;;;18.60;99.90;;;;;;5076199;28;20723;-74
2022/06/08 11:36:10;;;;;;;4.93;2.35;;;18.50;99.90;;;;;;5075433;28;20242;-72
2022/06/08 11:38:58;;;;;;;6.90;2.28;;;18.40;99.90;;;;;;5075922;28;20530;-73
2022/06/08 11:41:29;;;;;;;8.20;2.55;;;18.30;99.90;;;;;;5075944;28;20168;-72
2022/06/08 11:43:56;;;;;;;7.47;2.00;;;18.20;99.90;;;;;;5075884;28;20304;-77
2022/06/08 11:46:30;;;;;;;24.80;2.88;;;18.20;99.90;;;;;;5075797;28;20171;-76
2022/06/08 11:48:56;;;;;;;8.27;2.72;;;18.10;99.90;;;;;;5075843;28;20655;-76
2022/06/08 11:51:51;;;;;;;8.55;3.03;;;18.00;99.90;;;;;;5075805;28;20168;-75
2022/06/08 11:54:22;;;;;;;10.38;3.90;;;17.80;99.90;;;;;;5075185;28;20191;-75
2022/06/08 11:57:19;;;;;;;8.05;2.40;;;17.70;99.90;;;;;;5075566;28;20188;-75
2022/06/08 11:59:46;;;;;;;6.22;2.00;;;17.50;99.90;;;;;;5075650;28;20164;-75
2022/06/08 12:02:33;;;;;;;3.40;1.83;;;17.00;99.90;;;;;;5075529;28;20251;-80
2022/06/08 12:04:59;;;;;;;7.25;2.88;;;16.50;99.90;;;;;;5074254;28;20168;-74
2022/06/08 12:07:41;;;;;;;2.58;2.17;;;16.10;99.90;;;;;;5075297;28;20188;-72
2022/06/08 12:10:12;;;;;;;2.30;2.00;;;15.80;99.90;;;;;;5075419;28;20196;-73
2022/06/08 12:12:38;;;;;;;2.90;2.33;;;15.70;99.90;;;;;;5075319;28;20178;-74
2022/06/08 12:15:25;;;;;;;2.50;2.30;;;15.60;99.90;;;;;;5073842;28;20251;-74
2022/06/08 12:17:51;;;;;;;7.70;2.95;;;15.60;99.90;;;;;;5074984;28;20220;-74
2022/06/08 12:20:37;;;;;;;3.78;2.38;;;15.70;99.90;;;;;;5074993;28;20272;-74
2022/06/08 12:23:03;;;;;;;4.85;2.47;;;15.70;99.90;;;;;;5075023;28;20165;-73
2022/06/08 12:25:30;;;;;;;6.53;2.63;;;15.70;99.90;;;;;;5073809;28;20179;-74
2022/06/08 12:27:59;;;;;;;2.67;2.47;;;15.80;99.90;;;;;;5075043;28;20161;-74
2022/06/08 12:30:29;;;;;;;3.97;3.47;;;15.80;99.90;;;;;;5073619;28;20820;-74
2022/06/08 12:33:18;;;;;;;5.15;2.53;;;15.80;99.90;;;;;;5074883;28;20176;-74
2022/06/08 12:36:11;;;;;;;6.00;3.17;;;15.90;99.90;;;;;;5075003;28;20247;-74
2022/06/08 12:38:38;;;;;;;5.88;2.60;;;15.90;99.90;;;;;;5074731;28;20196;-74
2022/06/08 12:41:04;;;;;;;10.63;3.78;;;16.10;99.90;;;;;;5075237;28;20176;-74
2022/06/08 12:43:36;;;;;;;4.75;2.67;;;16.20;99.90;;;;;;5074684;28;20263;-74
2022/06/08 12:46:10;;;;;;;6.93;2.97;;;16.20;99.90;;;;;;5074644;28;20191;-74
2022/06/08 12:48:50;;;;;;;6.95;3.03;;;16.30;99.90;;;;;;5074623;28;20633;-71
2022/06/08 12:51:34;;;;;;;4.95;3.03;;;16.50;99.90;;;;;;5074489;28;20163;-71
2022/06/08 12:54:05;;;;;;;3.78;2.80;;;16.60;99.90;;;;;;5074496;28;20168;-71
2022/06/08 12:56:31;;;;;;;5.63;2.95;;;16.70;99.90;;;;;;5074416;28;20251;-71
2022/06/08 12:58:57;;;;;;;3.78;2.50;;;16.80;99.90;;;;;;5073153;28;20788;-71
2022/06/08 13:01:27;;;;;;;6.43;3.05;;;16.80;99.90;;;;;;5074371;28;20164;-71
2022/06/08 13:03:53;;;;;;;6.43;2.70;;;16.90;99.90;;;;;;5074296;28;20164;-71
2022/06/08 13:06:19;;;;;;;4.13;3.00;;;17.00;99.90;;;;;;5074186;28;20230;-72
2022/06/08 13:08:45;;;;;;;4.32;2.58;;;17.10;99.90;;;;;;5074161;28;20176;-74
2022/06/08 13:11:20;;;;;;;5.65;2.90;;;17.30;99.90;;;;;;5074167;28;20168;-72
2022/06/08 13:13:47;;;;;;;7.25;3.05;;;17.30;99.90;;;;;;5072807;28;20562;-71
2022/06/08 13:16:22;;;;;;;3.58;2.30;;;17.40;99.90;;;;;;5073766;28;20221;-72
2022/06/08 13:18:49;;;;;;;5.35;2.88;;;17.30;99.90;;;;;;5073971;28;20685;-71
2022/06/08 13:21:15;;;;;;;7.45;2.75;;;17.30;99.90;;;;;;5072772;28;20214;-71
2022/06/08 13:23:41;;;;;;;3.42;2.75;;;17.20;99.90;;;;;;5072577;28;20215;-75
2022/06/08 13:26:16;;;;;;;4.55;2.50;;;17.20;99.90;;;;;;5073548;28;20156;-72
2022/06/08 13:28:42;;;;;;;7.05;2.90;;;17.20;99.90;;;;;;5073992;28;20171;-74
2022/06/08 13:31:10;;;;;;;3.70;2.38;;;17.10;99.90;;;;;;5071709;28;20266;-74
2022/06/08 13:33:58;;;;;;;4.47;2.92;;;17.00;99.90;;;;;;5073362;28;20167;-74
2022/06/08 13:36:33;;;;;;;7.55;2.67;;;16.80;99.90;;;;;;5072414;28;20168;-74
2022/06/08 13:39:22;;;;;;;6.75;3.08;;;16.70;99.90;;;;;;5073658;28;20637;-71
2022/06/08 13:41:50;;;;;;;4.57;2.85;;;16.70;99.90;;;;;;5073677;28;20168;-73
2022/06/08 13:44:27;;;;;;;7.93;3.05;;;16.70;99.90;;;;;;5072310;28;20167;-72
2022/06/08 13:47:08;;;;;;;5.50;3.00;;;16.70;99.90;;;;;;5073554;28;20210;-73
2022/06/08 13:49:37;;;;;;;4.88;3.05;;;16.70;99.90;;;;;;5073435;28;20167;-76
2022/06/08 13:52:03;;;;;;;4.03;2.53;;;16.80;99.90;;;;;;5072300;28;20180;-76
2022/06/08 13:54:40;;;;;;;3.85;2.83;;;16.70;99.90;;;;;;5073522;28;20737;-76
2022/06/08 13:57:08;;;;;;;3.83;2.80;;;16.60;99.90;;;;;;5072142;28;20210;-77
2022/06/08 13:59:35;;;;;;;8.65;2.35;;;16.60;99.90;;;;;;5073665;28;20199;-76
2022/06/08 14:02:00;;;;;;;4.50;2.50;;;16.60;99.90;;;;;;5073453;28;20625;-75
2022/06/08 14:04:31;;;;;;;2.08;1.98;;;16.60;99.90;;;;;;5072330;28;20229;-76
2022/06/08 14:15:16;;;;;;;2.50;2.30;;;16.70;99.90;;;;;;5073570;28;20206;-76
2022/06/08 14:17:44;;;;;;;6.28;3.55;;;16.60;99.90;;;;;;5073383;28;20220;-76
2022/06/08 14:20:32;;;;;;;4.20;2.42;;;16.40;99.90;;;;;;5073488;28;20168;-76
2022/06/08 14:22:59;;;;;;;7.50;3.40;;;16.30;99.90;;;;;;5072161;28;20176;-73
2022/06/08 14:25:25;;;;;;;4.82;2.22;;;16.20;99.90;;;;;;5072140;28;20175;-73
2022/06/08 14:27:50;;;;;;;4.72;2.88;;;16.10;99.90;;;;;;5073094;28;20229;-74
2022/06/08 14:30:19;;;;;;;3.22;2.25;;;16.00;99.90;;;;;;5071929;28;20722;-73
2022/06/08 14:32:55;;;;;;;3.72;2.50;;;15.80;99.90;;;;;;5072172;28;20221;-73
2022/06/08 14:35:35;;;;;;;2.83;2.63;;;15.80;99.90;;;;;;5073160;28;20175;-74
2022/06/08 14:38:01;;;;;;;3.20;2.75;;;15.70;99.90;;;;;;5073152;28;20207;-75
2022/06/08 14:40:34;;;;;;;5.65;2.97;;;15.70;99.90;;;;;;5076937;28;20167;-75
2022/06/08 14:43:02;;;;;;;3.45;2.95;;;15.90;99.90;;;;;;5076893;28;20255;-76
2022/06/08 14:45:27;;;;;;;7.95;3.15;;;15.70;99.90;;;;;;5076969;28;20161;-77
2022/06/08 14:47:53;;;;;;;6.72;2.35;;;15.70;99.90;;;;;;5076794;28;20191;-76
2022/06/08 14:50:24;;;;;;;5.47;2.90;;;15.80;99.90;;;;;;5076681;28;20168;-76
2022/06/08 14:52:50;;;;;;;5.60;3.17;;;15.80;99.90;;;;;;5076952;28;20255;-76
2022/06/08 14:58:03;;;;;;;3.97;3.38;;;15.90;99.90;;;;;;5077244;28;20646;-77
2022/06/08 15:00:29;;;;;;;3.30;2.92;;;16.00;99.90;;;;;;5075403;28;20172;-76
2022/06/08 15:02:56;;;;;;;6.55;3.53;;;16.00;99.90;;;;;;5075703;28;20172;-76
2022/06/08 15:05:22;;;;;;;5.05;3.55;;;16.00;99.90;;;;;;5076945;28;20173;-76
2022/06/08 15:07:48;;;;;;;5.75;3.33;;;15.90;99.90;;;;;;5076818;28;20252;-77
2022/06/08 15:10:15;;;;;;;3.85;3.33;;;15.90;99.90;;;;;;5075425;28;20172;-77
2022/06/08 15:12:43;;;;;;;9.32;3.85;;;15.80;99.90;;;;;;5076705;28;20199;-77
2022/06/08 15:26:39;;;;;;;5.50;2.70;;;15.90;99.90;;;;;;5091184;28;20566;-71
2022/06/08 15:29:12;;;;;;;5.80;2.90;;;15.70;99.90;;;;;;5091061;28;20182;-72
2022/06/08 15:31:38;;;;;;;3.40;2.97;;;15.70;99.90;;;;;;5091119;28;20202;-71
2022/06/08 15:34:12;;;;;;;4.78;3.10;;;15.70;99.90;;;;;;5091085;28;20164;-71
2022/06/08 15:36:38;;;;;;;3.67;3.33;;;15.60;99.90;;;;;;5091016;28;20160;-76
2022/06/08 15:39:17;;;;;;;6.20;3.58;;;15.60;99.90;;;;;;5090949;28;20171;-79
2022/06/08 15:41:43;;;;;;;2.72;2.58;;;15.60;99.90;;;;;;5089859;28;20667;-76
2022/06/08 15:44:10;;;;;;;3.05;2.83;;;15.60;99.90;;;;;;5090717;28;20172;-71
2022/06/08 15:46:39;;;;;;;4.38;2.90;;;15.60;99.90;;;;;;5090737;28;20164;-71
2022/06/08 15:49:07;;;;;;;2.85;2.70;;;15.60;99.90;;;;;;5090868;28;20225;-71
2022/06/08 15:51:35;;;;;;;3.78;3.15;;;15.80;99.90;;;;;;5090785;28;20187;-71
2022/06/08 15:54:22;;;;;;;2.33;2.10;;;15.60;99.90;;;;;;5090589;28;20617;-71
2022/06/08 15:56:55;;;;;;;4.13;2.50;;;15.60;99.90;;;;;;5090231;28;20211;-71
2022/06/08 15:59:28;;;;;;;3.25;2.10;;;15.60;99.90;;;;;;5090666;28;20164;-71
2022/06/08 16:01:54;;;;;;;2.83;2.08;;;15.60;99.90;;;;;;5090399;28;20671;-72
2022/06/08 16:04:20;;;;;;;3.47;3.15;;;15.60;99.90;;;;;;5090195;28;20176;-72
2022/06/08 16:06:47;;;;;;;4.13;3.60;;;15.60;99.90;;;;;;5089066;28;20539;-72
2022/06/08 16:09:14;;;;;;;2.20;2.00;;;15.70;99.90;;;;;;5090231;28;20245;-73
2022/06/08 16:11:40;;;;;;;2.45;2.13;;;15.70;99.90;;;;;;5090199;28;20720;-73
2022/06/08 16:14:06;;;;;;;3.33;2.40;;;15.70;99.90;;;;;;5090114;28;20255;-72
2022/06/08 16:16:33;;;;;;;2.50;2.20;;;15.70;99.90;;;;;;5089286;28;20247;-72
2022/06/08 16:18:58;;;;;;;2.50;2.30;;;15.80;99.90;;;;;;5089545;28;20188;-73
2022/06/08 16:21:24;;;;;;;2.20;2.00;;;15.70;99.90;;;;;;5090046;28;20170;-74
2022/06/08 16:23:53;;;;;;;2.65;1.67;;;15.60;99.90;;;;;;5089924;28;20172;-74
2022/06/08 16:26:19;;;;;;;2.20;2.10;;;15.50;99.90;;;;;;5089735;28;20234;-74
2022/06/08 16:28:46;;;;;;;2.50;2.30;;;15.50;99.90;;;;;;5089894;28;20164;-76
2022/06/08 16:31:14;;;;;;;5.65;3.17;;;15.50;99.90;;;;;;5089907;28;20163;-76
2022/06/08 16:33:40;;;;;;;5.30;2.35;;;15.40;99.90;;;;;;5087908;28;20682;-73
2022/06/08 16:36:07;;;;;;;2.67;2.47;;;15.40;99.90;;;;;;5086113;28;20168;-72
2022/06/08 16:38:33;;;;;;;4.80;2.05;;;15.30;99.90;;;;;;5075601;28;20172;-74
2022/06/08 16:40:59;;;;;;;2.78;1.98;;;15.20;99.90;;;;;;5075788;28;20252;-74
2022/06/08 16:43:24;;;;;;;2.20;1.90;;;15.30;99.90;;;;;;5075903;28;20164;-74
2022/06/08 16:45:50;;;;;;;1.63;1.63;;;15.30;99.90;;;;;;5075820;28;20204;-74
2022/06/08 16:48:18;;;;;;;2.47;1.73;;;15.40;99.90;;;;;;5075908;28;20169;-74
2022/06/08 16:50:45;;;;;;;1.98;1.80;;;15.50;99.90;;;;;;5075751;28;20168;-73
2022/06/08 16:53:11;;;;;;;1.73;1.70;;;15.50;99.90;;;;;;5075776;28;20579;-74
2022/06/08 16:55:37;;;;;;;1.90;1.70;;;15.60;99.90;;;;;;5074423;28;20175;-73
2022/06/08 17:00:48;;;;;;;1.55;1.50;;;15.50;99.90;;;;;;5075708;28;20543;-74
2022/06/08 17:03:14;;;;;;;1.90;1.80;;;15.40;99.90;;;;;;5075528;28;20169;-73
2022/06/08 17:05:41;;;;;;;1.42;1.42;;;15.50;99.90;;;;;;5074182;28;20204;-73
2022/06/08 17:08:08;;;;;;;2.17;2.08;;;15.30;99.90;;;;;;5075466;28;20618;-73
2022/06/08 17:10:34;;;;;;;2.42;2.33;;;15.30;99.90;;;;;;5075360;28;20645;-73
2022/06/08 17:12:59;;;;;;;3.17;2.30;;;15.20;99.90;;;;;;5074099;28;20172;-73
2022/06/08 17:15:25;;;;;;;1.50;1.50;;;15.10;99.90;;;;;;5075309;28;20172;-73
2022/06/08 17:17:51;;;;;;;1.42;1.40;;;15.00;99.90;;;;;;5075227;28;20165;-73
2022/06/08 17:20:21;;;;;;;1.50;1.42;;;14.90;99.90;;;;;;5075169;28;20184;-73
2022/06/08 17:22:47;;;;;;;1.98;1.85;;;14.90;99.90;;;;;;5075240;28;20237;-73
2022/06/08 17:25:15;;;;;;;1.60;1.50;;;14.90;99.90;;;;;;5075004;28;20677;-73
2022/06/08 17:27:43;;;;;;;2.17;1.60;;;14.90;99.90;;;;;;5075136;28;20180;-73
2022/06/08 17:30:11;;;;;;;1.70;1.70;;;14.80;99.90;;;;;;5075135;28;20199;-73
2022/06/08 17:32:36;;;;;;;1.70;1.60;;;14.70;99.90;;;;;;5074989;28;20160;-72
2022/06/08 17:35:05;;;;;;;1.52;1.52;;;14.70;99.90;;;;;;5074923;28;20626;-73
2022/06/08 18:02:30;;;;;;;4.03;1.80;;;13.70;99.90;;;;;;5090936;27;20541;-73
2022/06/08 18:04:56;;;;;;;2.40;2.22;;;13.80;99.90;;;;;;5090872;28;20225;-73
2022/06/08 18:07:23;;;;;;;3.08;2.55;;;13.70;99.90;;;;;;5090830;28;20576;-74
2022/06/08 18:09:49;;;;;;;5.53;2.30;;;13.70;99.90;;;;;;5090720;28;20168;-74
2022/06/08 18:12:16;;;;;;;4.05;2.40;;;13.80;99.90;;;;;;5090660;28;20217;-73
2022/06/08 18:14:47;;;;;;;3.58;2.63;;;13.80;99.90;;;;;;5090719;28;20159;-73
2022/06/08 18:17:15;;;;;;;4.60;3.13;;;13.80;99.90;;;;;;5089431;28;20423;-74
2022/06/08 18:19:40;;;;;;;3.08;2.70;;;13.90;99.90;;;;;;5089295;28;20514;-74
2022/06/08 18:22:06;;;;;;;3.53;2.50;;;13.90;99.90;;;;;;5090489;28;20225;-74
2022/06/08 18:24:33;;;;;;;3.80;2.45;;;13.90;99.90;;;;;;5090463;28;20164;-74
